| Time | Avg. Air Temp | Dew Point | Avg. Rel Humidity | Avg. 2 Min Wind Speed | Max Gust Velocity | MGV Time | MGV Direction | Avg. Spot Wind Velocity |
|---|---|---|---|---|---|---|---|---|
| 2026-05-04 10:40:00 | 3° C | -3° C | 61% | 32 km/h | 37 km/h | 10:36:00 | N | 31 km/h |
| 09:40:00 | 3° C | -3° C | 63% | 35 km/h | 41 km/h | 09:37:00 | NE | 37 km/h |
| 08:40:00 | 3° C | -4° C | 60% | 29 km/h | 41 km/h | 08:38:00 | NE | 34 km/h |
| 07:40:00 | 3° C | -3° C | 61% | 35 km/h | 45 km/h | 07:38:00 | NE | 39 km/h |
| 06:40:00 | 3° C | -4° C | 60% | 29 km/h | 36 km/h | 06:38:00 | NE | 27 km/h |
| 05:40:00 | 3° C | -4° C | 59% | 22 km/h | 25 km/h | 05:37:00 | NE | 22 km/h |
| 04:40:00 | 4° C | -4° C | 54% | 23 km/h | 25 km/h | 04:40:00 | NE | 23 km/h |
| 03:40:00 | 4° C | -4° C | 58% | 6 km/h | 12 km/h | 03:38:00 | N | 6 km/h |
| 02:40:00 | 4° C | -4° C | 56% | 10 km/h | 25 km/h | 02:36:00 | W | 14 km/h |
| 01:40:00 | 4° C | -4° C | 58% | 4 km/h | 26 km/h | 01:36:00 | W | 7 km/h |
| 00:40:00 | 4° C | -4° C | 53% | 13 km/h | 33 km/h | 00:40:00 | NW | 14 km/h |
| 23:40:00 | 5° C | -4° C | 53% | 7 km/h | 19 km/h | 23:39:00 | W | 6 km/h |
| 22:40:00 | 6° C | -3° C | 53% | 10 km/h | 15 km/h | 22:40:00 | NE | 7 km/h |
| 21:40:00 | 6° C | -3° C | 53% | 8 km/h | 14 km/h | 21:38:00 | NE | 9 km/h |
| 20:40:00 | 7° C | -3° C | 50% | 22 km/h | 24 km/h | 20:37:00 | NW | 21 km/h |
| 19:40:00 | 7° C | -3° C | 51% | 18 km/h | 22 km/h | 19:40:00 | NW | 9 km/h |
| 18:40:00 | 7° C | -3° C | 50% | 8 km/h | 15 km/h | 18:39:00 | NE | 8 km/h |
| 17:40:00 | 7° C | -3° C | 48% | 4 km/h | 16 km/h | 17:36:00 | W | 4 km/h |
| 16:40:00 | 7° C | -3° C | 50% | 5 km/h | 9 km/h | 16:38:00 | NW | 5 km/h |
| 15:40:00 | 7° C | -3° C | 49% | 9 km/h | 20 km/h | 15:39:00 | N | 9 km/h |
| 14:40:00 | 6° C | -3° C | 51% | 6 km/h | 11 km/h | 14:39:00 | N | 6 km/h |
| 13:40:00 | 6° C | -3° C | 52% | 15 km/h | 19 km/h | 13:37:00 | NW | 16 km/h |
| 12:40:00 | 5° C | -4° C | 52% | 15 km/h | 22 km/h | 12:36:00 | NW | 16 km/h |
| 11:40:00 | 5° C | -5° C | 48% | 10 km/h | 13 km/h | 11:40:00 | NW | 9 km/h |
Subpeak Weather
| Time | Avg. Air Temp | Dew Point | Avg. Rel Humidity | Avg. 2 Min Wind Speed | Max Gust Velocity | MGV Time | MGV Direction | Avg. Spot Wind Velocity |
|---|---|---|---|---|---|---|---|---|
| 2026-05-04 10:40:00 | 3° C | -3° C | 61% | 32 km/h | 37 km/h | 10:36:00 | N | 31 km/h |
| 10:35:00 | 3° C | -3° C | 61% | 31 km/h | 36 km/h | 10:33:00 | NE | 33 km/h |
| 10:30:00 | 3° C | -3° C | 62% | 31 km/h | 39 km/h | 10:29:00 | NE | 31 km/h |
| 10:25:00 | 3° C | -3° C | 63% | 30 km/h | 36 km/h | 10:22:00 | NE | 30 km/h |
| 10:20:00 | 3° C | -3° C | 63% | 29 km/h | 34 km/h | 10:19:00 | NE | 26 km/h |
| 10:15:00 | 3° C | -3° C | 63% | 31 km/h | 36 km/h | 10:12:00 | NE | 28 km/h |
| 10:10:00 | 3° C | -3° C | 62% | 31 km/h | 36 km/h | 10:06:00 | NE | 28 km/h |
| 10:05:00 | 3° C | -3° C | 63% | 34 km/h | 46 km/h | 10:04:00 | NE | 34 km/h |
| 10:00:00 | 3° C | -3° C | 61% | 36 km/h | 40 km/h | 09:59:00 | NE | 36 km/h |
| 09:55:00 | 3° C | -3° C | 62% | 36 km/h | 41 km/h | 09:55:00 | NE | 37 km/h |
| 09:50:00 | 3° C | -3° C | 63% | 33 km/h | 39 km/h | 09:47:00 | NE | 30 km/h |
| 09:45:00 | 3° C | -3° C | 62% | 34 km/h | 42 km/h | 09:42:00 | NE | 34 km/h |
| 09:40:00 | 3° C | -3° C | 63% | 35 km/h | 41 km/h | 09:37:00 | NE | 37 km/h |




